Time;durP1;ratioP1;P1;durP2;ratioP2;P2;SDS_P1;SDS_P2;PMS_P1;PMS_P2;Temp;Humidity;BMP_temperature;BMP_pressure;BME280_temperature;BME280_humidity;BME280_pressure;Samples;Min_cycle;Max_cycle;Signal;HPM_P1;HPM_P2
2024/03/21 00:00:10;;;;;;;37.10;27.02;;;11.70;99.90;;;;;;4873241;29;20436;-79
2024/03/21 00:02:39;;;;;;;35.70;25.45;;;11.70;99.90;;;;;;4859199;29;20045;-79
2024/03/21 00:05:07;;;;;;;34.60;26.05;;;11.70;99.90;;;;;;4883034;29;20044;-79
2024/03/21 00:07:33;;;;;;;35.17;25.65;;;11.70;99.90;;;;;;4874309;29;20045;-79
2024/03/21 00:09:59;;;;;;;34.83;25.98;;;11.70;99.90;;;;;;4877163;29;20055;-79
2024/03/21 00:12:25;;;;;;;32.83;24.50;;;11.70;99.90;;;;;;4877573;29;20045;-78
2024/03/21 00:14:51;;;;;;;32.20;23.50;;;11.70;99.90;;;;;;4861724;29;20472;-79
2024/03/21 00:17:17;;;;;;;30.45;23.63;;;11.60;99.90;;;;;;4875378;29;20037;-79
2024/03/21 00:19:43;;;;;;;31.40;23.08;;;11.80;99.90;;;;;;4859010;29;20096;-80
2024/03/21 00:22:09;;;;;;;35.22;24.60;;;11.60;99.90;;;;;;4861110;29;20111;-80
2024/03/21 00:24:37;;;;;;;32.80;24.27;;;11.60;99.90;;;;;;4871137;29;20063;-79
2024/03/21 00:27:05;;;;;;;33.05;23.30;;;11.60;99.90;;;;;;4863233;29;20418;-79
2024/03/21 00:29:31;;;;;;;36.22;23.92;;;11.60;99.90;;;;;;4867793;29;20041;-79
2024/03/21 00:31:57;;;;;;;34.03;23.88;;;11.80;99.90;;;;;;4870034;29;20051;-79
2024/03/21 00:34:23;;;;;;;32.13;23.15;;;11.70;99.90;;;;;;4872227;29;20049;-81
2024/03/21 00:36:48;;;;;;;32.78;22.98;;;11.80;99.90;;;;;;4876746;29;20037;-78
2024/03/21 00:39:23;;;;;;;39.75;23.95;;;11.50;99.90;;;;;;4874254;29;20408;-79
2024/03/21 00:41:49;;;;;;;36.88;24.83;;;11.80;99.90;;;;;;4856335;29;20109;-79
2024/03/21 00:44:15;;;;;;;39.60;24.58;;;11.50;99.90;;;;;;4875742;29;20037;-79
2024/03/21 00:46:44;;;;;;;36.47;24.58;;;11.50;99.90;;;;;;4869647;29;20072;-79
2024/03/21 00:49:14;;;;;;;35.65;23.77;;;11.50;99.90;;;;;;4876362;29;20400;-79
2024/03/21 00:51:40;;;;;;;40.28;25.80;;;11.50;99.90;;;;;;4856668;29;20051;-79
2024/03/21 00:54:07;;;;;;;36.50;24.65;;;11.50;99.90;;;;;;4860647;29;20092;-79
2024/03/21 00:56:33;;;;;;;37.00;22.80;;;11.50;99.90;;;;;;4872769;29;20036;-79
2024/03/21 00:59:00;;;;;;;37.83;22.95;;;11.40;99.90;;;;;;4877825;29;20123;-79
2024/03/21 01:01:27;;;;;;;40.53;24.50;;;11.50;99.90;;;;;;4878703;29;20051;-79
2024/03/21 01:03:55;;;;;;;39.40;24.75;;;11.50;99.90;;;;;;4886435;29;20101;-79
2024/03/21 01:06:21;;;;;;;38.03;25.27;;;11.50;99.90;;;;;;4876025;29;20559;-79
2024/03/21 01:08:47;;;;;;;36.80;24.15;;;11.50;99.90;;;;;;4882510;29;20056;-79
2024/03/21 01:11:13;;;;;;;36.38;24.48;;;11.50;99.90;;;;;;4881822;29;20408;-78
2024/03/21 01:13:39;;;;;;;35.03;22.95;;;11.50;99.90;;;;;;4883282;29;20056;-78
2024/03/21 01:16:08;;;;;;;35.30;21.30;;;11.40;99.90;;;;;;4883536;29;20041;-79
2024/03/21 01:18:37;;;;;;;33.67;21.02;;;11.50;99.90;;;;;;4878233;29;20080;-79
2024/03/21 01:21:05;;;;;;;34.08;21.63;;;11.50;99.90;;;;;;4882761;29;20106;-79
2024/03/21 01:23:31;;;;;;;35.10;21.30;;;11.40;99.90;;;;;;4883408;29;20122;-78
2024/03/21 01:25:58;;;;;;;35.75;22.60;;;11.50;99.90;;;;;;4882617;29;20044;-77
2024/03/21 01:28:24;;;;;;;33.78;21.33;;;11.50;99.90;;;;;;4881929;29;20040;-78
2024/03/21 01:30:50;;;;;;;33.10;21.58;;;11.50;99.90;;;;;;4890741;29;20045;-78
2024/03/21 01:33:18;;;;;;;33.88;21.20;;;11.50;99.90;;;;;;4871905;29;20055;-77
2024/03/21 01:35:44;;;;;;;34.38;20.60;;;11.50;99.90;;;;;;4893007;29;20311;-78
2024/03/21 01:38:09;;;;;;;32.67;20.05;;;11.50;99.90;;;;;;4891298;29;20515;-78
2024/03/21 01:40:37;;;;;;;34.95;20.52;;;11.50;99.90;;;;;;4877848;29;20041;-78
2024/03/21 01:43:03;;;;;;;31.67;20.23;;;11.50;99.90;;;;;;4892071;29;20072;-78
2024/03/21 01:45:29;;;;;;;32.03;19.20;;;11.60;99.90;;;;;;4886464;29;20449;-78
2024/03/21 01:47:58;;;;;;;32.28;18.95;;;11.50;99.90;;;;;;4869245;29;20045;-79
2024/03/21 01:50:25;;;;;;;30.77;17.50;;;11.60;99.90;;;;;;4879629;29;20044;-78
2024/03/21 01:52:51;;;;;;;25.30;16.52;;;11.50;99.90;;;;;;4883323;29;20053;-78
2024/03/21 01:55:17;;;;;;;28.98;16.48;;;11.60;99.90;;;;;;4897189;29;20040;-76
2024/03/21 01:57:45;;;;;;;26.67;17.48;;;11.60;99.90;;;;;;4875130;29;20485;-77
2024/03/21 02:00:11;;;;;;;31.02;17.75;;;11.60;99.90;;;;;;4882148;29;20041;-78
2024/03/21 02:02:37;;;;;;;27.05;17.38;;;11.50;99.90;;;;;;4880454;29;20149;-78
2024/03/21 02:05:04;;;;;;;28.70;18.10;;;11.60;99.90;;;;;;4876099;29;20139;-78
2024/03/21 02:07:31;;;;;;;26.23;17.55;;;11.60;99.90;;;;;;4880306;29;20041;-78
2024/03/21 02:09:57;;;;;;;28.45;17.50;;;11.60;99.90;;;;;;4866023;29;20041;-78
2024/03/21 02:12:46;;;;;;;30.13;17.80;;;11.60;99.90;;;;;;4890350;29;20080;-78
2024/03/21 02:15:12;;;;;;;29.77;17.45;;;11.50;99.90;;;;;;4877012;29;20037;-77
2024/03/21 02:17:39;;;;;;;28.17;17.27;;;11.50;99.90;;;;;;4880434;29;20037;-78
2024/03/21 02:20:06;;;;;;;27.50;18.02;;;11.50;99.90;;;;;;4881232;29;20045;-78
2024/03/21 02:22:37;;;;;;;25.85;16.45;;;11.50;99.90;;;;;;4879472;29;20075;-79
2024/03/21 02:25:11;;;;;;;25.33;17.00;;;11.40;99.90;;;;;;4899597;29;20140;-78
2024/03/21 02:27:41;;;;;;;27.40;16.80;;;11.40;99.90;;;;;;4892340;29;20052;-78
2024/03/21 02:30:09;;;;;;;29.88;17.05;;;11.40;99.90;;;;;;4881418;29;20114;-78
2024/03/21 02:32:35;;;;;;;26.92;15.82;;;11.40;99.90;;;;;;4881771;29;20067;-77
2024/03/21 02:35:03;;;;;;;24.30;15.98;;;11.30;99.90;;;;;;4870426;29;20132;-78
2024/03/21 02:37:30;;;;;;;24.73;15.73;;;11.30;99.90;;;;;;4877725;29;20048;-79
2024/03/21 02:39:56;;;;;;;27.02;15.75;;;11.40;99.90;;;;;;4867517;29;20124;-79
2024/03/21 02:42:22;;;;;;;23.58;14.85;;;11.30;99.90;;;;;;4879792;29;20127;-79
2024/03/21 02:44:48;;;;;;;22.90;14.57;;;11.30;99.90;;;;;;4878402;29;20073;-78
2024/03/21 02:47:15;;;;;;;22.23;14.27;;;11.30;99.90;;;;;;4876093;29;20045;-78
2024/03/21 02:49:41;;;;;;;24.67;14.40;;;11.30;99.90;;;;;;4890175;29;20051;-78
2024/03/21 02:52:06;;;;;;;21.50;13.98;;;11.20;99.90;;;;;;4878977;29;20143;-79
2024/03/21 02:54:32;;;;;;;26.23;14.90;;;11.10;99.90;;;;;;4870925;29;20088;-79
2024/03/21 02:57:06;;;;;;;26.58;14.90;;;11.10;99.90;;;;;;4880795;29;20559;-78
2024/03/21 02:59:34;;;;;;;26.92;15.07;;;11.20;99.90;;;;;;4878235;29;20115;-79
2024/03/21 03:02:01;;;;;;;25.27;14.43;;;11.10;99.90;;;;;;4885234;29;20055;-78
2024/03/21 03:04:26;;;;;;;27.13;14.07;;;11.10;99.90;;;;;;4880965;29;20037;-79
2024/03/21 03:06:52;;;;;;;23.42;14.20;;;11.10;99.90;;;;;;4876907;29;20048;-78
2024/03/21 03:09:18;;;;;;;23.88;14.00;;;11.10;99.90;;;;;;4866015;29;20416;-78
2024/03/21 03:11:43;;;;;;;24.52;14.55;;;11.10;99.90;;;;;;4881626;29;20057;-75
2024/03/21 03:14:10;;;;;;;22.45;13.27;;;11.10;99.90;;;;;;4873238;29;20041;-76
2024/03/21 03:16:35;;;;;;;24.70;13.43;;;11.00;99.90;;;;;;4876565;29;20116;-75
2024/03/21 03:19:02;;;;;;;15.20;9.57;;;11.00;99.90;;;;;;4885685;29;20120;-76
2024/03/21 03:21:27;;;;;;;15.68;8.60;;;11.00;99.90;;;;;;4865993;29;21457;-76
2024/03/21 03:23:53;;;;;;;12.77;7.93;;;11.00;99.90;;;;;;4878494;29;20045;-76
2024/03/21 03:26:19;;;;;;;11.40;7.43;;;10.90;99.90;;;;;;4883768;29;20055;-76
2024/03/21 03:28:45;;;;;;;10.52;7.28;;;10.80;99.90;;;;;;4859922;29;20083;-74
2024/03/21 03:31:12;;;;;;;11.00;6.78;;;10.80;99.90;;;;;;4887288;29;20076;-77
2024/03/21 03:36:23;;;;;;;9.88;7.10;;;10.70;99.90;;;;;;4885599;29;20424;-78
2024/03/21 03:38:49;;;;;;;10.98;7.43;;;10.70;99.90;;;;;;4883473;29;20040;-78
2024/03/21 03:41:16;;;;;;;9.68;7.50;;;10.90;99.90;;;;;;4903430;29;20120;-78
2024/03/21 03:43:41;;;;;;;14.93;7.85;;;10.60;99.90;;;;;;4883449;29;20064;-78
2024/03/21 03:46:07;;;;;;;9.57;7.10;;;10.60;99.90;;;;;;4872800;29;20045;-77
2024/03/21 03:48:32;;;;;;;10.18;7.65;;;10.50;99.90;;;;;;4888879;29;20044;-78
2024/03/21 03:50:58;;;;;;;12.63;8.90;;;10.50;99.90;;;;;;4878740;29;20093;-78
2024/03/21 03:53:23;;;;;;;11.88;8.35;;;10.40;99.90;;;;;;4871663;29;20079;-78
2024/03/21 03:55:49;;;;;;;13.48;8.93;;;10.40;99.90;;;;;;4877120;29;20471;-78
2024/03/21 03:58:15;;;;;;;13.57;9.30;;;10.50;99.90;;;;;;4875812;29;20037;-78
2024/03/21 04:00:40;;;;;;;17.17;10.82;;;10.30;99.90;;;;;;4863004;29;20041;-78
2024/03/21 04:03:06;;;;;;;13.82;10.52;;;10.20;99.90;;;;;;4875951;29;20132;-78
2024/03/21 04:05:31;;;;;;;16.35;11.80;;;10.10;99.90;;;;;;4870862;29;20048;-78
2024/03/21 04:07:57;;;;;;;22.02;13.18;;;10.10;99.90;;;;;;4876494;29;20045;-78
2024/03/21 04:10:22;;;;;;;18.42;13.25;;;10.20;99.90;;;;;;4885436;29;20037;-78
2024/03/21 04:12:48;;;;;;;19.65;13.45;;;10.00;99.90;;;;;;4882180;29;20128;-78
2024/03/21 04:15:14;;;;;;;20.42;12.02;;;10.10;99.90;;;;;;4881487;29;20044;-78
2024/03/21 04:17:39;;;;;;;18.20;12.70;;;10.00;99.90;;;;;;4883880;29;20045;-78
2024/03/21 04:20:06;;;;;;;20.30;12.80;;;9.90;99.90;;;;;;4889873;29;20051;-77
2024/03/21 04:22:36;;;;;;;18.58;12.55;;;10.00;99.90;;;;;;4884736;29;20120;-78
2024/03/21 04:25:03;;;;;;;19.38;12.65;;;10.00;99.90;;;;;;4891464;29;20132;-77
2024/03/21 04:27:29;;;;;;;15.40;11.18;;;9.90;99.90;;;;;;4885104;29;20520;-78
2024/03/21 04:29:55;;;;;;;16.73;9.63;;;9.90;99.90;;;;;;4884233;29;20036;-78
2024/03/21 04:32:21;;;;;;;14.25;9.18;;;9.90;99.90;;;;;;4882895;29;20044;-77
2024/03/21 04:34:46;;;;;;;15.95;8.68;;;10.20;99.90;;;;;;4883775;29;20071;-78
2024/03/21 04:37:17;;;;;;;15.55;7.97;;;9.90;99.90;;;;;;4862985;29;20109;-78
2024/03/21 04:39:47;;;;;;;14.10;7.53;;;9.80;99.90;;;;;;4891723;29;20045;-77
2024/03/21 04:42:16;;;;;;;16.48;8.20;;;9.80;99.90;;;;;;4890445;29;20041;-77
2024/03/21 04:44:45;;;;;;;15.88;7.57;;;9.80;99.90;;;;;;4896925;29;20041;-77
2024/03/21 04:47:11;;;;;;;12.40;7.03;;;9.80;99.90;;;;;;4885782;29;20063;-77
2024/03/21 04:49:37;;;;;;;13.35;7.03;;;9.70;99.90;;;;;;4879309;29;20040;-78
2024/03/21 04:52:04;;;;;;;14.20;6.25;;;9.70;99.90;;;;;;4865150;29;20040;-78
2024/03/21 04:54:29;;;;;;;11.65;6.38;;;9.70;99.90;;;;;;4895527;29;20069;-78
2024/03/21 04:56:58;;;;;;;15.25;6.57;;;9.80;99.90;;;;;;4887267;29;20041;-78
2024/03/21 04:59:28;;;;;;;17.35;6.97;;;9.70;99.90;;;;;;4887279;29;20081;-78
2024/03/21 05:01:55;;;;;;;14.00;6.13;;;9.60;99.90;;;;;;4891389;29;20045;-78
2024/03/21 05:04:20;;;;;;;17.40;6.55;;;9.90;99.90;;;;;;4881679;29;20468;-77
2024/03/21 05:06:46;;;;;;;14.73;6.45;;;9.70;99.90;;;;;;4883558;29;20105;-78
2024/03/21 05:09:12;;;;;;;13.45;6.28;;;9.60;99.90;;;;;;4881216;29;20073;-76
2024/03/21 05:11:37;;;;;;;17.65;6.60;;;9.60;99.90;;;;;;4888480;29;20047;-78
2024/03/21 05:14:03;;;;;;;15.48;6.22;;;9.50;99.90;;;;;;4883627;29;20048;-78
2024/03/21 05:16:30;;;;;;;17.45;5.57;;;9.80;99.90;;;;;;4888435;29;20492;-78
2024/03/21 05:18:56;;;;;;;15.48;5.80;;;9.60;99.90;;;;;;4884961;29;20069;-78
2024/03/21 05:21:22;;;;;;;13.82;5.57;;;9.50;99.90;;;;;;4903179;29;20088;-78
2024/03/21 05:23:48;;;;;;;15.98;5.30;;;9.50;99.90;;;;;;4868610;29;20047;-77
2024/03/21 05:26:14;;;;;;;13.07;5.30;;;9.70;99.90;;;;;;4881443;29;20044;-77
2024/03/21 05:28:39;;;;;;;13.43;4.68;;;9.50;99.90;;;;;;4883601;29;20362;-77
2024/03/21 05:31:22;;;;;;;11.88;4.20;;;9.50;99.90;;;;;;4895349;29;20044;-78
2024/03/21 05:33:48;;;;;;;12.23;4.97;;;9.50;99.90;;;;;;4877582;29;20503;-76
2024/03/21 05:36:15;;;;;;;14.63;4.30;;;9.50;99.90;;;;;;4871594;29;20133;-78
2024/03/21 05:38:44;;;;;;;13.75;4.60;;;9.50;99.90;;;;;;4877350;29;20044;-77
2024/03/21 05:41:10;;;;;;;11.13;4.05;;;9.60;99.90;;;;;;4879128;29;20037;-77
2024/03/21 05:43:37;;;;;;;9.10;3.95;;;9.70;99.90;;;;;;4885719;29;20092;-77
2024/03/21 05:46:03;;;;;;;14.93;4.38;;;9.50;99.90;;;;;;4886890;29;20460;-77
2024/03/21 05:48:30;;;;;;;8.55;3.60;;;9.50;99.90;;;;;;4884460;29;20045;-77
2024/03/21 05:50:56;;;;;;;13.98;4.00;;;9.50;99.90;;;;;;4875902;29;20037;-77
2024/03/21 05:53:21;;;;;;;13.20;3.75;;;9.60;99.90;;;;;;4876514;29;20048;-76
2024/03/21 05:56:04;;;;;;;14.35;3.85;;;9.60;99.90;;;;;;4875785;29;20044;-77
2024/03/21 05:58:35;;;;;;;10.95;3.47;;;9.60;99.90;;;;;;4878306;29;20105;-77
2024/03/21 06:01:07;;;;;;;9.63;3.38;;;9.50;99.90;;;;;;4879126;29;20037;-75
2024/03/21 06:03:34;;;;;;;18.00;3.53;;;9.50;99.90;;;;;;4874632;29;20408;-76
2024/03/21 06:06:00;;;;;;;11.65;3.05;;;9.50;99.90;;;;;;4878476;29;20045;-77
2024/03/21 06:08:26;;;;;;;10.10;2.78;;;9.60;99.90;;;;;;4881093;29;20157;-77
2024/03/21 06:10:52;;;;;;;8.07;2.67;;;9.60;99.90;;;;;;4876178;29;20433;-77
2024/03/21 06:13:19;;;;;;;9.32;3.15;;;9.50;99.90;;;;;;4871254;29;20045;-77
2024/03/21 06:15:44;;;;;;;11.13;3.03;;;9.50;99.90;;;;;;4860501;29;20044;-77
2024/03/21 06:18:10;;;;;;;9.45;2.47;;;9.50;99.90;;;;;;4875138;29;20671;-76
2024/03/21 06:20:35;;;;;;;8.85;2.53;;;9.50;99.90;;;;;;4874825;29;20041;-77
2024/03/21 06:23:01;;;;;;;8.13;2.30;;;9.50;99.90;;;;;;4878919;29;20041;-77
2024/03/21 06:25:27;;;;;;;7.60;2.55;;;9.50;99.90;;;;;;4884884;29;20436;-77
2024/03/21 06:27:53;;;;;;;9.32;2.90;;;9.70;99.90;;;;;;4885233;29;20045;-77
2024/03/21 06:30:19;;;;;;;14.23;2.65;;;9.70;99.90;;;;;;4883838;29;20040;-77
2024/03/21 06:32:44;;;;;;;8.98;2.10;;;9.50;99.90;;;;;;4883671;29;20048;-77
2024/03/21 06:35:10;;;;;;;7.45;2.20;;;9.50;99.90;;;;;;4874826;29;20045;-77
2024/03/21 06:37:37;;;;;;;8.95;2.15;;;9.50;99.90;;;;;;4878020;29;20504;-77
2024/03/21 06:40:06;;;;;;;6.60;2.10;;;9.50;99.90;;;;;;4876234;29;20041;-77
2024/03/21 06:42:33;;;;;;;9.35;2.35;;;9.50;99.90;;;;;;4877169;29;20078;-77
2024/03/21 06:44:59;;;;;;;10.50;2.47;;;9.60;99.90;;;;;;4881997;29;20052;-77
2024/03/21 06:47:25;;;;;;;8.25;2.03;;;9.40;99.90;;;;;;4883003;29;20053;-77
2024/03/21 06:49:53;;;;;;;8.32;2.15;;;9.60;99.90;;;;;;4882407;29;20037;-77
2024/03/21 06:52:20;;;;;;;7.20;1.70;;;9.50;99.90;;;;;;4884692;29;20053;-77
2024/03/21 06:54:45;;;;;;;7.40;2.20;;;9.50;99.90;;;;;;4880934;29;20062;-77
2024/03/21 06:57:11;;;;;;;7.45;1.70;;;9.50;99.90;;;;;;4883036;29;20512;-77
2024/03/21 06:59:37;;;;;;;5.90;1.73;;;9.50;99.90;;;;;;4881271;29;20049;-79
2024/03/21 07:02:05;;;;;;;9.80;2.30;;;9.60;99.90;;;;;;4888487;29;20151;-78
2024/03/21 07:04:30;;;;;;;6.85;2.13;;;9.60;99.90;;;;;;4889048;29;20396;-78
2024/03/21 07:06:56;;;;;;;7.38;2.00;;;9.60;99.90;;;;;;4892618;29;20037;-78
2024/03/21 07:09:22;;;;;;;6.10;2.20;;;9.60;99.90;;;;;;4885471;29;20033;-78
2024/03/21 07:11:47;;;;;;;5.68;2.05;;;9.60;99.90;;;;;;4887424;29;20052;-79
2024/03/21 07:14:13;;;;;;;6.00;2.10;;;9.70;99.90;;;;;;4867654;29;20052;-78
2024/03/21 07:16:38;;;;;;;9.02;2.10;;;9.70;99.90;;;;;;4890300;29;20049;-78
2024/03/21 07:19:04;;;;;;;10.43;2.40;;;9.90;99.90;;;;;;4883571;29;20033;-78
2024/03/21 07:21:30;;;;;;;6.30;2.65;;;9.70;99.90;;;;;;4890471;29;20037;-78
2024/03/21 07:23:55;;;;;;;9.50;2.10;;;9.80;99.90;;;;;;4871278;29;20045;-78
2024/03/21 07:26:21;;;;;;;6.55;2.13;;;9.80;99.90;;;;;;4890464;29;20073;-78
2024/03/21 07:28:47;;;;;;;6.57;1.92;;;9.80;99.90;;;;;;4888235;29;20049;-78
2024/03/21 07:31:12;;;;;;;4.18;1.83;;;9.80;99.90;;;;;;4883737;29;20075;-78
2024/03/21 07:33:38;;;;;;;6.00;2.13;;;9.90;99.90;;;;;;4887758;29;20456;-77
2024/03/21 07:36:04;;;;;;;9.45;1.90;;;9.90;99.90;;;;;;4884783;29;20575;-78
2024/03/21 07:38:30;;;;;;;6.03;1.77;;;9.80;99.90;;;;;;4889483;29;20071;-77
2024/03/21 07:41:00;;;;;;;5.43;2.20;;;9.80;99.90;;;;;;4885806;29;20059;-78
2024/03/21 07:43:26;;;;;;;4.75;2.33;;;9.80;99.90;;;;;;4880391;29;20152;-78
2024/03/21 07:45:52;;;;;;;4.95;2.00;;;9.80;99.90;;;;;;4883710;29;20048;-78
2024/03/21 07:48:18;;;;;;;9.30;3.05;;;9.80;99.90;;;;;;4882370;29;20140;-78
2024/03/21 07:50:44;;;;;;;8.95;2.58;;;9.80;99.90;;;;;;4876391;29;20469;-78
2024/03/21 07:53:09;;;;;;;8.65;3.00;;;9.90;99.90;;;;;;4883762;29;20060;-77
2024/03/21 07:55:35;;;;;;;6.75;2.30;;;10.30;99.90;;;;;;4882033;29;20428;-78
2024/03/21 07:58:02;;;;;;;6.18;2.10;;;9.90;99.90;;;;;;4882938;29;20041;-78
2024/03/21 08:00:30;;;;;;;5.25;1.90;;;9.90;99.90;;;;;;4883462;29;20416;-77
2024/03/21 08:02:56;;;;;;;9.38;2.25;;;9.90;99.90;;;;;;4883111;29;20047;-78
2024/03/21 08:05:22;;;;;;;6.82;2.17;;;9.90;99.90;;;;;;4880877;29;20416;-78
2024/03/21 08:07:48;;;;;;;5.25;2.20;;;9.90;99.90;;;;;;4881588;29;20051;-78
2024/03/21 08:10:14;;;;;;;6.93;1.90;;;9.90;99.90;;;;;;4881343;29;20088;-77
2024/03/21 08:12:40;;;;;;;9.93;2.38;;;10.00;99.90;;;;;;4881933;29;20132;-78
2024/03/21 08:15:06;;;;;;;6.63;2.17;;;10.30;99.90;;;;;;4882230;29;20087;-77
2024/03/21 08:17:32;;;;;;;6.32;2.10;;;10.00;99.90;;;;;;4865291;29;20509;-78
2024/03/21 08:19:58;;;;;;;7.75;2.30;;;10.20;99.90;;;;;;4878395;29;20040;-78
2024/03/21 08:22:23;;;;;;;7.88;2.55;;;10.00;99.90;;;;;;4880570;29;20056;-78
2024/03/21 08:24:49;;;;;;;9.60;2.88;;;10.00;99.90;;;;;;4881662;29;20067;-78
2024/03/21 08:27:19;;;;;;;9.32;3.33;;;10.00;99.90;;;;;;4882294;29;20045;-78
2024/03/21 08:29:51;;;;;;;7.50;2.80;;;10.10;99.90;;;;;;4881601;29;20088;-78
2024/03/21 08:32:23;;;;;;;8.80;2.50;;;10.10;99.90;;;;;;4882366;29;20045;-77
2024/03/21 08:34:49;;;;;;;6.03;2.33;;;10.20;99.90;;;;;;4880812;29;20489;-78
2024/03/21 08:37:14;;;;;;;7.28;2.03;;;10.30;99.90;;;;;;4879445;29;20084;-78
2024/03/21 08:39:41;;;;;;;7.93;2.13;;;10.30;99.90;;;;;;4876195;29;20063;-78
2024/03/21 08:42:07;;;;;;;8.10;2.47;;;10.40;99.90;;;;;;4877220;29;20041;-77
2024/03/21 08:44:33;;;;;;;7.38;2.47;;;10.40;99.90;;;;;;4878215;29;20041;-78
2024/03/21 08:46:59;;;;;;;7.82;2.30;;;10.50;99.90;;;;;;4881722;29;20493;-78
2024/03/21 08:49:24;;;;;;;9.95;1.88;;;10.40;99.90;;;;;;4875684;29;20037;-78
2024/03/21 08:51:50;;;;;;;4.55;2.08;;;10.40;99.90;;;;;;4878770;29;20093;-78
2024/03/21 08:54:16;;;;;;;6.43;2.17;;;10.50;99.90;;;;;;4881919;29;20373;-78
2024/03/21 08:56:41;;;;;;;8.55;2.10;;;10.30;99.90;;;;;;4881263;29;20045;-78
2024/03/21 08:59:07;;;;;;;7.95;2.70;;;10.30;99.90;;;;;;4874141;29;21617;-78
2024/03/21 09:01:32;;;;;;;8.43;2.60;;;10.40;99.90;;;;;;4874452;29;20346;-78
2024/03/21 09:03:58;;;;;;;7.35;2.05;;;10.40;99.90;;;;;;4879694;29;20045;-78
2024/03/21 09:06:24;;;;;;;8.93;2.33;;;10.60;99.90;;;;;;4875352;29;20045;-78
2024/03/21 09:08:49;;;;;;;12.45;3.03;;;10.50;99.90;;;;;;4881610;29;20045;-78
2024/03/21 09:11:15;;;;;;;6.78;2.20;;;10.50;99.90;;;;;;4876842;29;20048;-78
2024/03/21 09:13:40;;;;;;;7.38;2.30;;;10.60;99.90;;;;;;4880970;29;20567;-78
2024/03/21 09:16:07;;;;;;;9.65;2.72;;;10.60;99.90;;;;;;4864903;29;20124;-78
2024/03/21 09:18:33;;;;;;;8.13;2.17;;;10.60;99.90;;;;;;4864212;29;20037;-78
2024/03/21 09:21:02;;;;;;;7.57;2.25;;;11.00;99.90;;;;;;4875032;29;20049;-77
2024/03/21 09:23:28;;;;;;;13.25;2.97;;;10.60;99.90;;;;;;4880054;29;20055;-78
2024/03/21 09:25:59;;;;;;;6.60;2.60;;;10.50;99.90;;;;;;4880577;29;20116;-78
2024/03/21 09:28:24;;;;;;;8.45;2.70;;;10.50;99.90;;;;;;4872957;29;20040;-78
2024/03/21 09:30:51;;;;;;;9.02;2.80;;;10.50;99.90;;;;;;4861941;29;20055;-78
2024/03/21 09:33:16;;;;;;;8.55;2.58;;;10.60;99.90;;;;;;4878292;29;20049;-78
2024/03/21 09:35:43;;;;;;;12.27;2.78;;;10.50;99.90;;;;;;4880599;29;20123;-78
2024/03/21 09:38:09;;;;;;;10.10;3.20;;;10.50;99.90;;;;;;4880026;29;20390;-78
2024/03/21 09:40:36;;;;;;;8.88;2.88;;;10.50;99.90;;;;;;4879957;29;20116;-78
2024/03/21 09:43:03;;;;;;;9.02;2.55;;;10.50;99.90;;;;;;4880589;29;20468;-78
2024/03/21 09:45:32;;;;;;;10.98;2.85;;;10.40;99.90;;;;;;4877793;29;20137;-78
2024/03/21 09:47:58;;;;;;;9.35;2.90;;;10.40;99.90;;;;;;4879777;29;20097;-78
2024/03/21 09:50:25;;;;;;;8.55;2.65;;;10.40;99.90;;;;;;4879581;29;20036;-78
2024/03/21 09:52:51;;;;;;;7.78;2.65;;;10.40;99.90;;;;;;4879411;29;20045;-78
2024/03/21 09:55:18;;;;;;;12.73;3.30;;;10.50;99.90;;;;;;4878643;29;20037;-78
2024/03/21 09:57:44;;;;;;;9.48;2.97;;;10.70;99.90;;;;;;4856400;29;20049;-78
2024/03/21 10:00:12;;;;;;;10.13;3.08;;;10.50;99.90;;;;;;4878773;29;20449;-78
2024/03/21 10:02:38;;;;;;;9.63;2.90;;;10.60;99.90;;;;;;4916639;23;20064;-77
2024/03/21 10:05:10;;;;;;;7.85;2.75;;;10.90;99.90;;;;;;4856341;29;20112;-77
2024/03/21 10:07:38;;;;;;;8.43;2.50;;;10.70;99.90;;;;;;4857273;29;20056;-77
2024/03/21 10:10:05;;;;;;;12.38;3.00;;;10.80;99.90;;;;;;4856642;29;20038;-77
2024/03/21 10:12:30;;;;;;;12.45;3.60;;;10.80;99.90;;;;;;4860489;29;20416;-77
2024/03/21 10:14:56;;;;;;;10.48;3.10;;;10.90;99.90;;;;;;4856045;29;20045;-77
2024/03/21 10:17:26;;;;;;;8.15;3.20;;;10.90;99.90;;;;;;4855476;29;20167;-77
2024/03/21 10:19:53;;;;;;;11.40;3.10;;;10.90;99.90;;;;;;4861728;29;20045;-77
2024/03/21 10:22:24;;;;;;;9.13;3.13;;;10.80;99.90;;;;;;4866851;29;20535;-77
2024/03/21 10:24:55;;;;;;;12.52;3.38;;;11.00;99.90;;;;;;4848986;29;20501;-77
2024/03/21 10:27:22;;;;;;;10.70;3.40;;;11.20;99.90;;;;;;4861730;29;20052;-77
2024/03/21 10:29:49;;;;;;;11.38;3.70;;;11.00;99.90;;;;;;4861265;29;20049;-78
2024/03/21 10:32:20;;;;;;;11.30;3.40;;;10.90;99.90;;;;;;4857852;29;20049;-77
2024/03/21 10:34:50;;;;;;;9.27;3.25;;;10.90;99.90;;;;;;4856349;29;20046;-77
2024/03/21 10:37:23;;;;;;;10.93;3.03;;;10.90;99.90;;;;;;4861600;29;20493;-77
2024/03/21 10:39:53;;;;;;;7.63;3.42;;;10.90;99.90;;;;;;4859696;29;20124;-77
2024/03/21 10:42:31;;;;;;;8.38;3.60;;;10.90;99.90;;;;;;4859024;29;20056;-77
2024/03/21 10:45:03;;;;;;;9.45;2.95;;;10.90;99.90;;;;;;4856934;29;20041;-77
2024/03/21 10:47:29;;;;;;;10.38;3.13;;;10.90;99.90;;;;;;4860281;29;20080;-77
2024/03/21 10:49:55;;;;;;;8.48;2.83;;;10.90;99.90;;;;;;4844392;29;20132;-78
2024/03/21 10:52:21;;;;;;;11.77;2.80;;;11.00;99.90;;;;;;4857395;29;20054;-77
2024/03/21 10:54:51;;;;;;;6.68;2.88;;;11.00;99.90;;;;;;4860198;29;20073;-77
2024/03/21 10:57:28;;;;;;;9.15;3.20;;;11.10;99.90;;;;;;4854472;29;20048;-77
2024/03/21 10:59:58;;;;;;;10.57;3.30;;;11.20;99.90;;;;;;4865336;29;20046;-77
2024/03/21 11:02:27;;;;;;;11.02;4.25;;;11.10;99.90;;;;;;4865524;29;20041;-77
2024/03/21 11:04:54;;;;;;;11.80;4.57;;;11.10;99.90;;;;;;4869714;29;20045;-77
2024/03/21 11:07:21;;;;;;;10.77;4.65;;;11.10;99.90;;;;;;4862810;29;20463;-76
2024/03/21 11:09:48;;;;;;;21.10;11.52;;;11.10;99.90;;;;;;4862627;29;20111;-78
2024/03/21 11:12:14;;;;;;;18.80;9.18;;;11.40;99.90;;;;;;4854169;29;20034;-76
2024/03/21 11:14:46;;;;;;;21.25;10.30;;;11.30;99.90;;;;;;4859390;29;20075;-77
2024/03/21 11:17:15;;;;;;;15.32;6.43;;;11.10;99.90;;;;;;4857605;29;20045;-77
2024/03/21 11:19:41;;;;;;;12.40;4.78;;;11.10;99.90;;;;;;4843983;29;20049;-78
2024/03/21 11:22:12;;;;;;;17.00;8.77;;;11.10;99.90;;;;;;4859824;29;20053;-77
2024/03/21 11:24:38;;;;;;;15.52;10.07;;;11.10;99.90;;;;;;4856030;29;20049;-77
2024/03/21 11:27:07;;;;;;;16.55;6.57;;;11.20;99.90;;;;;;4858300;29;20053;-77
2024/03/21 11:29:32;;;;;;;19.55;10.70;;;11.10;99.90;;;;;;4863493;29;20043;-78
2024/03/21 11:31:59;;;;;;;63.28;37.88;;;11.20;99.90;;;;;;4862656;29;20706;-77
2024/03/21 11:34:24;;;;;;;292.52;133.75;;;11.10;99.90;;;;;;4857988;29;20042;-77
2024/03/21 11:36:50;;;;;;;153.50;83.25;;;11.20;99.90;;;;;;4858563;29;20101;-78
2024/03/21 11:39:17;;;;;;;131.60;76.78;;;11.10;99.90;;;;;;4859007;29;20049;-77
2024/03/21 11:41:43;;;;;;;252.20;129.02;;;11.10;99.90;;;;;;4855308;29;20036;-78
2024/03/21 11:44:16;;;;;;;145.68;86.85;;;11.10;99.90;;;;;;4857500;29;20394;-77
2024/03/21 11:46:43;;;;;;;63.03;40.05;;;11.10;99.90;;;;;;4857719;29;20402;-78
2024/03/21 11:49:10;;;;;;;48.20;33.72;;;11.00;99.90;;;;;;4842595;29;20378;-77
2024/03/21 11:51:36;;;;;;;28.63;20.98;;;11.00;99.90;;;;;;4853985;29;20141;-77
2024/03/21 11:54:04;;;;;;;29.83;21.88;;;11.00;99.90;;;;;;4853028;29;20144;-79
2024/03/21 11:56:35;;;;;;;29.00;22.00;;;11.00;99.90;;;;;;4853463;29;20053;-77
2024/03/21 11:59:01;;;;;;;24.23;20.60;;;11.00;99.90;;;;;;4853770;29;20053;-78
2024/03/21 12:01:27;;;;;;;23.25;18.20;;;11.00;99.90;;;;;;4851119;29;20044;-77
2024/03/21 12:03:53;;;;;;;19.85;14.45;;;10.90;99.90;;;;;;4842648;29;20541;-77
2024/03/21 12:06:18;;;;;;;14.05;7.57;;;11.00;99.90;;;;;;4852627;29;20114;-77
2024/03/21 12:08:45;;;;;;;12.07;5.97;;;10.90;99.90;;;;;;4859823;29;20407;-77
2024/03/21 12:11:15;;;;;;;12.73;6.25;;;10.90;99.90;;;;;;4853468;29;20469;-78
2024/03/21 12:13:42;;;;;;;15.18;8.50;;;10.70;99.90;;;;;;4852544;29;20049;-77
2024/03/21 12:16:20;;;;;;;16.80;10.18;;;10.70;99.90;;;;;;4853992;29;20420;-77
2024/03/21 12:18:47;;;;;;;19.63;10.02;;;10.70;99.90;;;;;;4854600;29;20432;-77
2024/03/21 12:21:17;;;;;;;21.73;13.95;;;10.70;99.90;;;;;;4854788;29;20426;-77
2024/03/21 12:23:44;;;;;;;23.42;14.55;;;10.70;99.90;;;;;;4854791;29;20463;-77
2024/03/21 12:26:14;;;;;;;17.10;9.82;;;10.70;99.90;;;;;;4854971;29;20049;-77
2024/03/21 12:28:40;;;;;;;16.13;7.60;;;10.70;99.90;;;;;;4855507;29;20049;-77
2024/03/21 12:31:14;;;;;;;18.85;7.85;;;10.60;99.90;;;;;;4856316;29;20041;-77
2024/03/21 12:33:44;;;;;;;16.13;7.57;;;10.60;99.90;;;;;;4849258;29;20045;-77
2024/03/21 12:36:11;;;;;;;19.83;14.60;;;10.60;99.90;;;;;;4853749;29;20360;-77
2024/03/21 12:38:37;;;;;;;15.95;8.15;;;10.80;99.90;;;;;;4859732;29;20132;-77